CFG6CM LGSK-EDDM
Flight info
| Callsign | CFG6CM |
|---|---|
| Flight time | N/A |
| Altitude | 38000 |
| Route | TSL UL617 MAKED DCT LONTA UL608 DOLEV DCT PETOV DCT GOLVA DCT VATET DCT REDBU Q112 NAPSA |
| Aircraft | A320/M-SDE3FGHIRWY/LB1 |
Departure
| Time | 2026-04-24 16:09 |
|---|---|
| Airport | Skiathos Island National Airport (LGSK) |
Arrival
| Time | N/A |
|---|---|
| Airport | Munich Airport (EDDM) |
| Time | Latitude | Longitude | Altitude | Speed | Heading |
|---|---|---|---|---|---|
| 2026-04-24 15:37 | 39.17948 | 23.50260 | 40 ft | 0 kts | 289° |
| 2026-04-24 15:58 | 39.17946 | 23.50268 | 39 ft | 4 kts | 287° |
| 2026-04-24 15:58 | 39.17940 | 23.50302 | 39 ft | 4 kts | 274° |
| 2026-04-24 15:59 | 39.17942 | 23.50335 | 39 ft | 4 kts | 245° |
| 2026-04-24 15:59 | 39.17955 | 23.50357 | 37 ft | 1 kts | 199° |
| 2026-04-24 15:59 | 39.17956 | 23.50357 | 37 ft | 1 kts | 199° |
| 2026-04-24 16:01 | 39.17947 | 23.50353 | 40 ft | 5 kts | 198° |
| 2026-04-24 16:01 | 39.17899 | 23.50332 | 40 ft | 7 kts | 198° |
| 2026-04-24 16:02 | 39.17850 | 23.50311 | 39 ft | 7 kts | 198° |
| 2026-04-24 16:02 | 39.17811 | 23.50293 | 39 ft | 4 kts | 201° |
| 2026-04-24 16:02 | 39.17765 | 23.50271 | 39 ft | 12 kts | 200° |
| 2026-04-24 16:02 | 39.17669 | 23.50241 | 39 ft | 14 kts | 197° |
| 2026-04-24 16:03 | 39.17583 | 23.50225 | 39 ft | 12 kts | 147° |
| 2026-04-24 16:03 | 39.17525 | 23.50280 | 40 ft | 10 kts | 175° |
| 2026-04-24 16:03 | 39.17433 | 23.50244 | 38 ft | 16 kts | 199° |
| 2026-04-24 16:03 | 39.17322 | 23.50196 | 31 ft | 19 kts | 198° |
| 2026-04-24 16:04 | 39.17199 | 23.50141 | 23 ft | 13 kts | 199° |
| 2026-04-24 16:04 | 39.17124 | 23.50107 | 22 ft | 10 kts | 199° |
| 2026-04-24 16:04 | 39.17109 | 23.50100 | 19 ft | 0 kts | 199° |
| 2026-04-24 16:04 | 39.17107 | 23.50099 | 19 ft | 3 kts | 199° |
| 2026-04-24 16:05 | 39.17052 | 23.50048 | 14 ft | 0 kts | 217° |
| 2026-04-24 16:05 | 39.17035 | 23.50039 | 11 ft | 9 kts | 190° |
| 2026-04-24 16:06 | 39.17022 | 23.50046 | 10 ft | 0 kts | 145° |
| 2026-04-24 16:06 | 39.17033 | 23.50066 | 14 ft | 5 kts | 28° |
| 2026-04-24 16:07 | 39.17038 | 23.50068 | 14 ft | 0 kts | 19° |
| 2026-04-24 16:09 | 39.17042 | 23.50070 | 13 ft | 5 kts | 19° |
| 2026-04-24 16:09 | 39.17308 | 23.50188 | 30 ft | 83 kts | 19° |
| 2026-04-24 16:09 | 39.17781 | 23.50395 | 38 ft | 134 kts | 18° |
| 2026-04-24 16:09 | 39.19161 | 23.50991 | 774 ft | 159 kts | 18° |
| 2026-04-24 16:10 | 39.22600 | 23.52514 | 2133 ft | 203 kts | 18° |
| 2026-04-24 16:11 | 39.25523 | 23.53826 | 2918 ft | 246 kts | 15° |
| 2026-04-24 16:11 | 39.27251 | 23.53987 | 3659 ft | 254 kts | 350° |
| 2026-04-24 16:11 | 39.28993 | 23.53547 | 4642 ft | 255 kts | 348° |
| 2026-04-24 16:12 | 39.32493 | 23.52627 | 6554 ft | 258 kts | 348° |
| 2026-04-24 16:12 | 39.34266 | 23.52159 | 7414 ft | 262 kts | 349° |
| 2026-04-24 16:12 | 39.37892 | 23.51196 | 9103 ft | 270 kts | 349° |
| 2026-04-24 16:13 | 39.39748 | 23.50706 | 9931 ft | 274 kts | 349° |
| 2026-04-24 16:13 | 39.43647 | 23.49272 | 10659 ft | 315 kts | 341° |
| 2026-04-24 16:14 | 39.47903 | 23.47214 | 11822 ft | 333 kts | 341° |
| 2026-04-24 16:14 | 39.50090 | 23.46149 | 12528 ft | 339 kts | 341° |
| 2026-04-24 16:14 | 39.53805 | 23.44338 | 13696 ft | 347 kts | 341° |
| 2026-04-24 16:15 | 39.55306 | 23.43608 | 14116 ft | 350 kts | 341° |
| 2026-04-24 16:15 | 39.60698 | 23.40984 | 15634 ft | 358 kts | 341° |
| 2026-04-24 16:16 | 39.66170 | 23.38325 | 17152 ft | 364 kts | 341° |
| 2026-04-24 16:16 | 39.67784 | 23.37542 | 17590 ft | 366 kts | 341° |
| 2026-04-24 16:17 | 39.75000 | 23.34024 | 19330 ft | 375 kts | 341° |
| 2026-04-24 16:17 | 39.79929 | 23.31611 | 20434 ft | 382 kts | 341° |
| 2026-04-24 16:18 | 39.84936 | 23.29149 | 21533 ft | 388 kts | 341° |
| 2026-04-24 16:18 | 39.90028 | 23.26652 | 22598 ft | 394 kts | 342° |
| 2026-04-24 16:18 | 39.92601 | 23.25391 | 23108 ft | 397 kts | 342° |
| 2026-04-24 16:19 | 39.97808 | 23.22832 | 24018 ft | 403 kts | 342° |
| 2026-04-24 16:19 | 40.00439 | 23.21541 | 24434 ft | 405 kts | 343° |
| 2026-04-24 16:20 | 40.05748 | 23.18929 | 25220 ft | 410 kts | 343° |
| 2026-04-24 16:20 | 40.11087 | 23.16294 | 25967 ft | 415 kts | 344° |
| 2026-04-24 16:20 | 40.13794 | 23.14958 | 26335 ft | 417 kts | 344° |
| 2026-04-24 16:21 | 40.19258 | 23.12257 | 27073 ft | 422 kts | 344° |
| 2026-04-24 16:21 | 40.22008 | 23.10895 | 27423 ft | 424 kts | 345° |
| 2026-04-24 16:21 | 40.24778 | 23.09522 | 27776 ft | 426 kts | 345° |
| 2026-04-24 16:22 | 40.27555 | 23.08144 | 28134 ft | 428 kts | 345° |
| 2026-04-24 16:22 | 40.33155 | 23.05357 | 28795 ft | 432 kts | 345° |
| 2026-04-24 16:22 | 40.35978 | 23.03948 | 29117 ft | 434 kts | 345° |
| 2026-04-24 16:23 | 40.38772 | 23.02550 | 29435 ft | 436 kts | 345° |
| 2026-04-24 16:23 | 40.41613 | 23.01130 | 29726 ft | 438 kts | 346° |
| 2026-04-24 16:23 | 40.44469 | 22.99707 | 30019 ft | 440 kts | 345° |
| 2026-04-24 16:24 | 40.50028 | 22.96096 | 30507 ft | 449 kts | 338° |
| 2026-04-24 16:24 | 40.52796 | 22.94162 | 30738 ft | 451 kts | 338° |
| 2026-04-24 16:24 | 40.55572 | 22.92213 | 30960 ft | 452 kts | 338° |
| 2026-04-24 16:24 | 40.58349 | 22.90263 | 31214 ft | 452 kts | 338° |
| 2026-04-24 16:25 | 40.61126 | 22.88310 | 31538 ft | 451 kts | 338° |
| 2026-04-24 16:25 | 40.63885 | 22.86366 | 31844 ft | 450 kts | 338° |
| 2026-04-24 16:25 | 40.66648 | 22.84418 | 32157 ft | 450 kts | 337° |
| 2026-04-24 16:26 | 40.72159 | 22.80544 | 32766 ft | 448 kts | 337° |
| 2026-04-24 16:26 | 40.74903 | 22.78616 | 33063 ft | 447 kts | 337° |
| 2026-04-24 16:26 | 40.80390 | 22.74751 | 33669 ft | 446 kts | 337° |
| 2026-04-24 16:27 | 40.83128 | 22.72821 | 33987 ft | 445 kts | 337° |
| 2026-04-24 16:27 | 40.85854 | 22.70896 | 34247 ft | 444 kts | 337° |
| 2026-04-24 16:27 | 40.88574 | 22.68970 | 34506 ft | 444 kts | 336° |
| 2026-04-24 16:27 | 40.91295 | 22.67043 | 34753 ft | 443 kts | 336° |
| 2026-04-24 16:28 | 40.94010 | 22.65121 | 34996 ft | 443 kts | 336° |
| 2026-04-24 16:28 | 40.96692 | 22.63221 | 35227 ft | 442 kts | 336° |
| 2026-04-24 16:28 | 41.02111 | 22.59371 | 35679 ft | 441 kts | 336° |
| 2026-04-24 16:29 | 41.04811 | 22.57449 | 35915 ft | 441 kts | 335° |
| 2026-04-24 16:29 | 41.07514 | 22.55523 | 36130 ft | 441 kts | 335° |
| 2026-04-24 16:29 | 41.12871 | 22.51579 | 36544 ft | 442 kts | 329° |
| 2026-04-24 16:30 | 41.17736 | 22.46535 | 36937 ft | 444 kts | 324° |
| 2026-04-24 16:30 | 41.20141 | 22.43968 | 37132 ft | 443 kts | 324° |
| 2026-04-24 16:30 | 41.22546 | 22.41404 | 37332 ft | 443 kts | 324° |
| 2026-04-24 16:31 | 41.24947 | 22.38841 | 37531 ft | 442 kts | 324° |
| 2026-04-24 16:31 | 41.27343 | 22.36282 | 37720 ft | 442 kts | 324° |
| 2026-04-24 16:31 | 41.29734 | 22.33724 | 37908 ft | 441 kts | 324° |
| 2026-04-24 16:31 | 41.32129 | 22.31159 | 37967 ft | 441 kts | 324° |
| 2026-04-24 16:32 | 41.36900 | 22.26032 | 37967 ft | 441 kts | 324° |
| 2026-04-24 16:32 | 41.41666 | 22.20898 | 37969 ft | 441 kts | 324° |
| 2026-04-24 16:33 | 41.46434 | 22.15768 | 37965 ft | 441 kts | 324° |
| 2026-04-24 16:33 | 41.51203 | 22.10631 | 37965 ft | 441 kts | 324° |
| 2026-04-24 16:34 | 41.55934 | 22.05509 | 37968 ft | 441 kts | 324° |
| 2026-04-24 16:34 | 41.60685 | 22.00344 | 37965 ft | 441 kts | 324° |
| 2026-04-24 16:35 | 41.65447 | 21.95172 | 37967 ft | 441 kts | 324° |
| 2026-04-24 16:35 | 41.70217 | 21.89994 | 37972 ft | 442 kts | 324° |
| 2026-04-24 16:36 | 41.74992 | 21.84796 | 37972 ft | 442 kts | 324° |
| 2026-04-24 16:36 | 41.79762 | 21.79588 | 37970 ft | 442 kts | 324° |
| 2026-04-24 16:37 | 41.84530 | 21.74368 | 37976 ft | 443 kts | 324° |
| 2026-04-24 16:37 | 41.89304 | 21.69128 | 37978 ft | 443 kts | 324° |
| 2026-04-24 16:38 | 41.94074 | 21.63890 | 37980 ft | 443 kts | 324° |
| 2026-04-24 16:38 | 41.98843 | 21.58653 | 37977 ft | 443 kts | 324° |
| 2026-04-24 16:39 | 42.03573 | 21.53432 | 37986 ft | 443 kts | 324° |
| 2026-04-24 16:39 | 42.08326 | 21.48168 | 37987 ft | 443 kts | 324° |
| 2026-04-24 16:40 | 42.13082 | 21.42895 | 37997 ft | 443 kts | 324° |
| 2026-04-24 16:40 | 42.17562 | 21.37177 | 37998 ft | 448 kts | 314° |
| 2026-04-24 16:41 | 42.21596 | 21.30778 | 38006 ft | 447 kts | 314° |
| 2026-04-24 16:41 | 42.25622 | 21.24390 | 37998 ft | 447 kts | 314° |
| 2026-04-24 16:42 | 42.29645 | 21.17988 | 38013 ft | 447 kts | 314° |
| 2026-04-24 16:42 | 42.33654 | 21.11591 | 38017 ft | 446 kts | 314° |
| 2026-04-24 16:43 | 42.37648 | 21.05222 | 38023 ft | 446 kts | 315° |
| 2026-04-24 16:43 | 42.41661 | 20.98802 | 38030 ft | 446 kts | 314° |
| 2026-04-24 16:44 | 42.45654 | 20.92389 | 38031 ft | 446 kts | 314° |
| 2026-04-24 16:44 | 42.49653 | 20.85962 | 38029 ft | 446 kts | 314° |
| 2026-04-24 16:45 | 42.53649 | 20.79527 | 38030 ft | 446 kts | 314° |
| 2026-04-24 16:45 | 42.57639 | 20.73081 | 38027 ft | 446 kts | 314° |
| 2026-04-24 16:46 | 42.61627 | 20.66616 | 38030 ft | 446 kts | 314° |
| 2026-04-24 16:46 | 42.65603 | 20.60156 | 38021 ft | 446 kts | 314° |
| 2026-04-24 16:47 | 42.69578 | 20.53695 | 38024 ft | 445 kts | 314° |
| 2026-04-24 16:47 | 42.73522 | 20.47270 | 38023 ft | 445 kts | 314° |
| 2026-04-24 16:48 | 42.77488 | 20.40795 | 38030 ft | 445 kts | 314° |
| 2026-04-24 16:48 | 42.81446 | 20.34323 | 38030 ft | 445 kts | 314° |
| 2026-04-24 16:49 | 42.85768 | 20.28401 | 38037 ft | 438 kts | 324° |
| 2026-04-24 16:49 | 42.90426 | 20.23055 | 38044 ft | 437 kts | 324° |
| 2026-04-24 16:50 | 42.95067 | 20.17696 | 38047 ft | 437 kts | 324° |
| 2026-04-24 16:50 | 42.99710 | 20.12326 | 38048 ft | 437 kts | 324° |
| 2026-04-24 16:51 | 43.04337 | 20.06965 | 38052 ft | 436 kts | 324° |
| 2026-04-24 16:51 | 43.08964 | 20.01592 | 38044 ft | 436 kts | 324° |
| 2026-04-24 16:52 | 43.13581 | 19.96221 | 38050 ft | 436 kts | 324° |
| 2026-04-24 16:52 | 43.18200 | 19.90841 | 38047 ft | 436 kts | 324° |
| 2026-04-24 16:53 | 43.22809 | 19.85452 | 38057 ft | 435 kts | 324° |
| 2026-04-24 16:53 | 43.27414 | 19.80061 | 38056 ft | 435 kts | 324° |
| 2026-04-24 16:54 | 43.32015 | 19.74685 | 38057 ft | 434 kts | 324° |
| 2026-04-24 16:54 | 43.36610 | 19.69294 | 38052 ft | 434 kts | 324° |
| 2026-04-24 16:55 | 43.41197 | 19.63890 | 38057 ft | 434 kts | 324° |
| 2026-04-24 16:55 | 43.45782 | 19.58486 | 38055 ft | 433 kts | 324° |
| 2026-04-24 16:56 | 43.50354 | 19.53079 | 38058 ft | 433 kts | 324° |
| 2026-04-24 16:56 | 43.54919 | 19.47663 | 38052 ft | 433 kts | 323° |
| 2026-04-24 16:57 | 43.59446 | 19.42269 | 38054 ft | 432 kts | 323° |
| 2026-04-24 16:57 | 43.64026 | 19.36812 | 38052 ft | 432 kts | 323° |
| 2026-04-24 16:58 | 43.68570 | 19.31389 | 38054 ft | 432 kts | 323° |
| 2026-04-24 16:58 | 43.73114 | 19.25962 | 38057 ft | 432 kts | 323° |
| 2026-04-24 16:59 | 43.77661 | 19.20521 | 38054 ft | 431 kts | 323° |
| 2026-04-24 17:00 | 43.84429 | 19.12388 | 38057 ft | 431 kts | 323° |
| 2026-04-24 17:00 | 43.91215 | 19.04205 | 38044 ft | 431 kts | 323° |
| 2026-04-24 17:01 | 43.98001 | 18.96017 | 38050 ft | 431 kts | 323° |
| 2026-04-24 17:02 | 44.04782 | 18.87805 | 38053 ft | 431 kts | 323° |
| 2026-04-24 17:02 | 44.09297 | 18.82314 | 38050 ft | 431 kts | 323° |
| 2026-04-24 17:03 | 44.15302 | 18.74997 | 38053 ft | 431 kts | 323° |
| 2026-04-24 17:04 | 44.19814 | 18.69493 | 38056 ft | 431 kts | 323° |
| 2026-04-24 17:04 | 44.26562 | 18.61233 | 38050 ft | 430 kts | 322° |
| 2026-04-24 17:05 | 44.31059 | 18.55711 | 38061 ft | 431 kts | 322° |
| 2026-04-24 17:06 | 44.37800 | 18.47404 | 38053 ft | 430 kts | 322° |
| 2026-04-24 17:06 | 44.44539 | 18.39094 | 38046 ft | 430 kts | 322° |
| 2026-04-24 17:07 | 44.49017 | 18.33547 | 38042 ft | 430 kts | 322° |
| 2026-04-24 17:08 | 44.57980 | 18.22415 | 38031 ft | 430 kts | 322° |
| 2026-04-24 17:08 | 44.62455 | 18.16845 | 38037 ft | 430 kts | 322° |
| 2026-04-24 17:09 | 44.71399 | 18.05653 | 38039 ft | 431 kts | 321° |
| 2026-04-24 17:10 | 44.80337 | 17.94426 | 38042 ft | 430 kts | 321° |
| 2026-04-24 17:12 | 44.98152 | 17.71918 | 38043 ft | 430 kts | 321° |